Time;durP1;ratioP1;P1;durP2;ratioP2;P2;SDS_P1;SDS_P2;PMS_P1;PMS_P2;Temp;Humidity;BMP_temperature;BMP_pressure;BME280_temperature;BME280_humidity;BME280_pressure;Samples;Min_cycle;Max_cycle;Signal;HPM_P1;HPM_P2
2023/04/19 05:03:20;;;;;;;19.42;13.15;;;9.40;99.90;;;;;;5077093;23;20303;-73
2023/04/19 05:05:53;;;;;;;16.38;12.13;;;9.50;99.90;;;;;;4948902;29;20042;-73
2023/04/19 05:08:19;;;;;;;19.05;12.55;;;9.50;99.90;;;;;;4963997;29;20031;-75
2023/04/19 05:10:44;;;;;;;18.27;13.27;;;9.60;99.90;;;;;;4960623;29;20039;-71
2023/04/19 05:13:11;;;;;;;18.30;12.00;;;9.60;99.90;;;;;;4949326;29;20058;-74
2023/04/19 05:15:38;;;;;;;18.10;12.68;;;9.60;99.90;;;;;;4949243;29;20035;-73
2023/04/19 05:18:05;;;;;;;17.48;12.52;;;9.70;99.90;;;;;;4949508;29;20220;-71
2023/04/19 05:20:38;;;;;;;17.77;12.00;;;9.70;99.90;;;;;;4946179;29;20071;-70
2023/04/19 05:23:11;;;;;;;18.05;12.32;;;9.70;99.90;;;;;;4970892;28;20141;-72
2023/04/19 05:25:40;;;;;;;19.70;12.48;;;9.70;99.90;;;;;;4957735;29;20023;-71
2023/04/19 05:28:06;;;;;;;19.45;12.95;;;9.80;99.90;;;;;;4965155;29;20027;-71
2023/04/19 05:30:40;;;;;;;19.40;13.02;;;9.80;99.90;;;;;;4964450;29;20273;-72
2023/04/19 05:33:06;;;;;;;18.30;12.52;;;9.90;99.90;;;;;;4965172;29;20027;-70
2023/04/19 05:35:31;;;;;;;18.50;12.35;;;9.90;99.90;;;;;;4961668;29;20043;-72
2023/04/19 05:37:57;;;;;;;21.73;13.68;;;10.00;99.90;;;;;;4944891;29;20031;-72
2023/04/19 05:40:23;;;;;;;20.02;12.90;;;10.00;99.90;;;;;;4940946;29;20158;-71
2023/04/19 05:42:49;;;;;;;17.95;12.52;;;10.00;99.90;;;;;;4966325;29;20042;-72
2023/04/19 05:45:17;;;;;;;19.98;12.80;;;10.10;99.90;;;;;;4947426;29;20099;-71
2023/04/19 05:47:43;;;;;;;21.40;13.27;;;10.10;99.90;;;;;;4942561;29;20023;-71
2023/04/19 05:50:35;;;;;;;19.75;12.82;;;10.10;99.90;;;;;;4942360;29;20047;-73
2023/04/19 05:53:21;;;;;;;22.38;11.70;;;10.10;99.90;;;;;;4964278;28;20051;-71
2023/04/19 05:55:49;;;;;;;19.10;12.32;;;10.10;99.90;;;;;;4947827;29;20078;-70
2023/04/19 05:58:15;;;;;;;18.48;12.73;;;10.10;99.90;;;;;;4958705;28;20071;-73
2023/04/19 06:00:41;;;;;;;18.60;11.68;;;10.10;99.90;;;;;;4962963;28;20047;-72
2023/04/19 06:03:11;;;;;;;18.42;11.93;;;10.10;99.90;;;;;;4948792;29;20081;-72
2023/04/19 06:05:39;;;;;;;18.30;12.15;;;10.10;99.90;;;;;;4932297;29;20213;-75
2023/04/19 06:08:05;;;;;;;17.43;11.83;;;10.10;99.90;;;;;;4935790;29;20028;-73
2023/04/19 06:10:31;;;;;;;18.42;11.20;;;10.20;99.90;;;;;;4927448;29;20288;-70
2023/04/19 06:12:57;;;;;;;15.93;10.90;;;10.40;99.90;;;;;;4945218;29;20028;-70
2023/04/19 06:15:24;;;;;;;18.17;10.98;;;10.50;99.90;;;;;;4952612;29;20059;-71
2023/04/19 06:17:50;;;;;;;16.65;11.35;;;10.60;99.90;;;;;;4932264;29;20089;-71
2023/04/19 06:20:16;;;;;;;15.93;10.98;;;10.70;99.90;;;;;;4965174;29;20147;-71
2023/04/19 06:22:44;;;;;;;17.05;11.90;;;10.80;99.90;;;;;;4947066;29;20194;-71
2023/04/19 06:25:10;;;;;;;18.58;11.18;;;10.80;99.90;;;;;;4949955;29;20047;-72
2023/04/19 06:27:35;;;;;;;16.25;11.55;;;10.90;99.90;;;;;;4932444;29;20127;-71
2023/04/19 06:30:01;;;;;;;16.20;11.38;;;11.00;99.90;;;;;;4955234;29;20059;-70
2023/04/19 06:32:27;;;;;;;17.15;11.63;;;10.90;99.90;;;;;;4941705;28;20043;-71
2023/04/19 06:34:53;;;;;;;18.42;11.20;;;11.00;99.90;;;;;;4951294;29;20098;-72
2023/04/19 06:37:19;;;;;;;14.93;10.60;;;11.10;99.90;;;;;;4944580;29;20039;-70
2023/04/19 06:39:44;;;;;;;17.05;11.05;;;11.10;99.90;;;;;;4945179;29;20380;-70
2023/04/19 06:42:11;;;;;;;16.95;10.80;;;11.20;99.90;;;;;;4964510;29;20027;-72
2023/04/19 06:44:37;;;;;;;16.65;10.27;;;11.30;99.90;;;;;;4937489;29;20026;-71
2023/04/19 06:47:02;;;;;;;15.15;10.48;;;11.40;99.90;;;;;;4964263;29;20057;-71
2023/04/19 06:49:28;;;;;;;16.67;10.55;;;11.40;99.90;;;;;;4963967;29;20075;-70
2023/04/19 06:51:54;;;;;;;14.50;10.32;;;11.40;99.90;;;;;;4964047;29;20046;-72
2023/04/19 06:54:20;;;;;;;18.13;11.05;;;11.40;99.90;;;;;;4964109;29;20070;-71
2023/04/19 06:56:47;;;;;;;14.70;10.48;;;11.50;99.90;;;;;;4927875;29;20284;-74
2023/04/19 06:59:15;;;;;;;15.40;10.75;;;11.70;99.90;;;;;;4946650;29;20048;-72
2023/04/19 07:01:42;;;;;;;14.70;9.57;;;11.80;99.90;;;;;;4963610;28;20047;-72
2023/04/19 07:04:08;;;;;;;15.07;9.85;;;11.80;99.90;;;;;;4964127;29;20439;-72
2023/04/19 07:06:34;;;;;;;14.55;9.48;;;11.80;99.90;;;;;;4946861;29;20217;-73
2023/04/19 07:09:00;;;;;;;16.98;10.10;;;11.90;99.90;;;;;;4958274;29;20353;-71
2023/04/19 07:11:26;;;;;;;12.90;8.98;;;12.00;99.90;;;;;;4956414;29;20034;-70
2023/04/19 07:13:52;;;;;;;14.75;10.75;;;11.90;99.90;;;;;;4964063;29;20027;-72
2023/04/19 07:16:17;;;;;;;15.18;10.43;;;12.00;99.90;;;;;;4963986;29;20057;-71
2023/04/19 07:18:43;;;;;;;14.85;9.80;;;12.00;99.90;;;;;;4946324;29;20047;-70
2023/04/19 07:21:09;;;;;;;17.20;10.60;;;12.10;99.90;;;;;;4964295;29;20050;-71
2023/04/19 07:23:35;;;;;;;15.45;9.82;;;12.20;99.90;;;;;;4963014;29;20035;-71
2023/04/19 07:26:01;;;;;;;16.15;10.07;;;12.30;99.90;;;;;;4964197;29;20043;-71
2023/04/19 07:28:30;;;;;;;15.05;10.20;;;12.50;99.90;;;;;;4963554;29;20030;-71
2023/04/19 07:30:56;;;;;;;15.40;9.05;;;12.70;99.90;;;;;;4952176;29;20110;-70
2023/04/19 07:33:29;;;;;;;15.35;9.93;;;12.70;99.90;;;;;;4964105;29;20083;-71
2023/04/19 07:35:55;;;;;;;18.35;10.50;;;12.80;99.90;;;;;;4946223;29;20058;-70
2023/04/19 07:38:21;;;;;;;13.70;9.55;;;13.00;99.90;;;;;;4940153;29;20217;-73
2023/04/19 07:40:47;;;;;;;15.23;9.55;;;12.90;99.90;;;;;;4944085;29;20028;-72
2023/04/19 07:43:13;;;;;;;18.10;9.98;;;12.90;99.90;;;;;;4938557;29;20026;-71
2023/04/19 07:45:39;;;;;;;12.05;9.10;;;12.70;99.90;;;;;;4963967;29;20284;-70
2023/04/19 07:48:05;;;;;;;14.25;10.00;;;12.80;99.90;;;;;;4963973;29;20031;-72
2023/04/19 07:50:30;;;;;;;14.65;9.05;;;12.90;99.90;;;;;;4963183;29;20031;-70
2023/04/19 07:53:02;;;;;;;14.85;9.15;;;13.20;99.90;;;;;;4963770;29;20043;-71
2023/04/19 07:55:28;;;;;;;13.15;9.32;;;13.30;99.90;;;;;;4963455;29;20039;-69
2023/04/19 07:57:53;;;;;;;15.10;8.63;;;13.40;99.90;;;;;;4957073;29;20082;-70
2023/04/19 08:00:22;;;;;;;14.32;9.23;;;13.50;99.90;;;;;;4963465;29;20039;-73
2023/04/19 08:02:48;;;;;;;14.90;9.00;;;13.50;99.90;;;;;;4946050;29;20102;-70
2023/04/19 08:05:16;;;;;;;11.70;8.45;;;13.40;99.90;;;;;;4946352;29;20039;-71
2023/04/19 08:07:42;;;;;;;13.13;9.40;;;13.40;99.90;;;;;;4962879;29;20275;-71
2023/04/19 08:10:09;;;;;;;13.48;8.82;;;13.40;99.90;;;;;;4954297;29;20040;-69
2023/04/19 08:12:35;;;;;;;12.75;8.27;;;13.60;99.90;;;;;;4943979;29;20059;-71
2023/04/19 08:15:06;;;;;;;14.15;8.75;;;13.80;99.90;;;;;;4944064;29;20306;-70
2023/04/19 08:17:32;;;;;;;12.77;7.90;;;14.00;99.90;;;;;;4944234;29;20263;-71
2023/04/19 08:19:58;;;;;;;13.30;9.27;;;14.40;99.60;;;;;;4947584;29;20054;-70
2023/04/19 08:22:24;;;;;;;10.60;7.22;;;14.80;98.70;;;;;;4947697;29;20054;-72
2023/04/19 08:24:53;;;;;;;11.73;7.05;;;14.80;97.40;;;;;;4948128;29;20209;-72
2023/04/19 08:27:19;;;;;;;9.93;6.32;;;14.70;97.10;;;;;;4948065;29;20062;-71
2023/04/19 08:29:45;;;;;;;8.93;6.38;;;14.60;97.10;;;;;;4947299;29;20032;-71
2023/04/19 08:32:11;;;;;;;10.57;6.97;;;14.70;97.10;;;;;;4966296;29;20044;-72
2023/04/19 08:34:38;;;;;;;8.95;6.03;;;14.80;96.30;;;;;;4966917;29;20031;-72
2023/04/19 08:37:06;;;;;;;9.57;5.70;;;14.80;95.80;;;;;;4934957;29;20079;-71
2023/04/19 08:39:32;;;;;;;10.18;6.00;;;15.00;96.20;;;;;;4946743;29;20063;-71
2023/04/19 08:42:06;;;;;;;9.68;6.15;;;14.90;95.10;;;;;;4947238;29;20043;-71
2023/04/19 08:44:34;;;;;;;10.20;6.47;;;14.90;95.30;;;;;;4939903;29;20224;-72
2023/04/19 08:47:00;;;;;;;8.77;6.63;;;14.50;95.70;;;;;;4966362;29;20043;-70
2023/04/19 08:49:27;;;;;;;8.68;6.15;;;14.60;96.10;;;;;;4966035;29;20055;-70
2023/04/19 08:51:54;;;;;;;9.65;6.20;;;14.60;96.30;;;;;;4949325;29;20043;-71
2023/04/19 08:54:21;;;;;;;8.90;6.43;;;14.80;95.30;;;;;;4966574;29;20301;-71
2023/04/19 08:56:46;;;;;;;9.20;6.05;;;14.70;94.80;;;;;;4965938;29;20212;-71
2023/04/19 08:59:13;;;;;;;9.30;6.25;;;14.70;94.90;;;;;;4965975;29;20035;-73
2023/04/19 09:01:39;;;;;;;9.95;6.18;;;14.90;94.80;;;;;;4950494;29;20047;-70
2023/04/19 09:04:06;;;;;;;8.50;5.82;;;14.90;94.40;;;;;;4947054;29;20107;-73
2023/04/19 09:06:39;;;;;;;10.57;5.68;;;15.10;94.30;;;;;;4946303;29;20044;-71
2023/04/19 09:09:15;;;;;;;8.32;5.55;;;15.20;94.00;;;;;;4946978;29;20309;-72
2023/04/19 09:11:41;;;;;;;10.48;6.38;;;15.30;93.50;;;;;;4944105;29;20304;-72
2023/04/19 09:14:08;;;;;;;8.55;6.22;;;15.40;94.40;;;;;;4966305;29;20042;-71
2023/04/19 09:16:36;;;;;;;10.63;6.43;;;15.20;93.80;;;;;;4965630;29;20031;-70
2023/04/19 09:19:02;;;;;;;8.82;6.03;;;15.20;93.60;;;;;;4959204;29;20072;-70
2023/04/19 09:21:31;;;;;;;9.82;6.30;;;15.20;93.70;;;;;;4938556;29;20039;-71
2023/04/19 09:23:58;;;;;;;8.88;6.13;;;15.40;93.70;;;;;;4943840;29;20078;-70
2023/04/19 09:26:28;;;;;;;9.75;6.40;;;15.80;93.10;;;;;;4958027;29;20023;-71
2023/04/19 09:29:06;;;;;;;9.18;6.43;;;16.00;93.00;;;;;;4962698;28;20065;-73
2023/04/19 09:31:37;;;;;;;10.32;7.40;;;16.10;93.10;;;;;;4945845;29;20049;-70
2023/04/19 09:34:17;;;;;;;12.27;8.02;;;15.90;93.20;;;;;;4946905;29;20031;-72
2023/04/19 09:36:43;;;;;;;10.77;6.88;;;15.70;93.40;;;;;;4932926;29;20031;-73
2023/04/19 09:39:09;;;;;;;9.90;7.03;;;15.70;93.50;;;;;;4946504;29;20032;-71
2023/04/19 09:41:53;;;;;;;11.60;7.97;;;15.50;93.30;;;;;;4946072;29;20087;-71
2023/04/19 09:44:19;;;;;;;12.93;7.35;;;15.50;94.10;;;;;;4955259;29;20344;-72
2023/04/19 09:46:48;;;;;;;8.77;6.22;;;15.60;93.40;;;;;;4965343;29;20046;-73
2023/04/19 09:49:16;;;;;;;10.23;7.07;;;16.00;93.00;;;;;;4965646;29;20074;-73
2023/04/19 09:51:43;;;;;;;10.32;7.30;;;16.30;92.30;;;;;;4947847;29;20278;-72
2023/04/19 09:54:10;;;;;;;9.68;7.00;;;16.60;91.30;;;;;;4965222;29;20086;-73
2023/04/19 09:56:36;;;;;;;10.45;7.15;;;16.70;92.10;;;;;;4964830;29;20034;-70
2023/04/19 09:59:03;;;;;;;13.25;7.05;;;16.70;91.80;;;;;;4948388;29;20050;-72
2023/04/19 10:01:34;;;;;;;10.88;7.03;;;17.00;91.40;;;;;;4956846;28;20031;-70
2023/04/19 10:04:03;;;;;;;8.63;6.72;;;17.30;91.10;;;;;;4965381;29;20100;-72
2023/04/19 10:06:30;;;;;;;13.35;6.80;;;17.20;90.70;;;;;;4947473;29;20254;-74
2023/04/19 10:08:59;;;;;;;8.93;6.75;;;17.50;91.20;;;;;;4964904;29;20040;-71
2023/04/19 10:11:29;;;;;;;9.63;7.53;;;17.40;90.70;;;;;;4938615;29;20034;-73
2023/04/19 10:13:58;;;;;;;9.80;7.18;;;17.60;90.50;;;;;;4946184;29;20027;-72
2023/04/19 10:16:25;;;;;;;9.38;6.78;;;17.60;90.50;;;;;;4957673;29;20027;-73
2023/04/19 10:18:51;;;;;;;9.23;6.65;;;17.60;89.50;;;;;;4964986;29;20252;-74
2023/04/19 10:21:19;;;;;;;7.82;6.18;;;17.70;88.40;;;;;;4964880;29;20035;-74
2023/04/19 10:23:46;;;;;;;7.00;5.53;;;17.80;88.00;;;;;;4949387;29;20091;-72
2023/04/19 10:26:12;;;;;;;8.25;5.32;;;17.60;88.20;;;;;;4945734;29;20218;-72
2023/04/19 10:28:37;;;;;;;8.20;5.72;;;17.20;89.10;;;;;;4944959;29;20035;-72
2023/04/19 10:31:04;;;;;;;7.45;5.57;;;16.60;90.10;;;;;;4954382;29;20055;-72
2023/04/19 10:33:34;;;;;;;9.93;5.38;;;16.30;90.70;;;;;;4963746;29;20029;-71
2023/04/19 10:36:00;;;;;;;8.85;5.55;;;16.40;90.80;;;;;;4934933;29;20047;-72
2023/04/19 10:38:48;;;;;;;9.98;5.93;;;16.40;91.00;;;;;;4941325;29;20032;-73
2023/04/19 10:41:16;;;;;;;9.40;6.13;;;16.30;91.10;;;;;;4945274;29;20027;-73
2023/04/19 10:43:59;;;;;;;10.43;7.40;;;16.00;91.60;;;;;;4948753;29;20033;-74
2023/04/19 10:46:27;;;;;;;9.20;6.80;;;15.90;91.80;;;;;;4951881;29;20364;-73
2023/04/19 10:49:00;;;;;;;9.77;7.10;;;15.90;92.30;;;;;;4945521;29;20028;-71
2023/04/19 10:51:37;;;;;;;11.10;7.10;;;15.70;92.40;;;;;;4945007;29;20046;-71
2023/04/19 10:54:48;;;;;;;11.35;7.10;;;15.40;92.60;;;;;;4945641;29;20094;-71
2023/04/19 10:57:17;;;;;;;11.93;6.80;;;15.20;93.20;;;;;;4884806;29;20041;-73
2023/04/19 10:59:43;;;;;;;9.65;6.72;;;15.00;93.40;;;;;;4886062;29;20081;-72
2023/04/19 11:02:20;;;;;;;11.48;7.30;;;15.10;93.40;;;;;;4886509;29;20116;-72
2023/04/19 11:04:49;;;;;;;10.82;7.55;;;15.20;93.20;;;;;;4885971;29;20041;-70
2023/04/19 11:07:17;;;;;;;10.63;7.10;;;15.30;93.10;;;;;;4886409;29;20044;-70
2023/04/19 11:09:49;;;;;;;9.83;6.50;;;15.50;93.00;;;;;;4885966;29;20056;-76
2023/04/19 11:12:18;;;;;;;11.70;7.20;;;15.70;92.80;;;;;;4886397;29;20459;-71
2023/04/19 11:14:51;;;;;;;10.07;6.78;;;15.50;92.80;;;;;;4886199;29;20041;-73
2023/04/19 11:17:25;;;;;;;13.88;7.25;;;15.40;93.20;;;;;;4901936;29;20315;-72
2023/04/19 11:19:59;;;;;;;13.50;7.65;;;15.10;93.70;;;;;;4886576;29;20033;-72
2023/04/19 11:22:34;;;;;;;11.10;7.07;;;14.90;94.10;;;;;;4881723;29;20319;-72
2023/04/19 11:25:13;;;;;;;10.38;7.43;;;14.60;94.60;;;;;;4868804;29;20072;-73
2023/04/19 11:27:43;;;;;;;;;;;14.30;95.20;;;;;;4902195;29;20059;-73
2023/04/19 11:30:15;;;;;;;13.32;7.35;;;14.10;95.70;;;;;;4949547;29;19976;-71
2023/04/19 11:32:51;;;;;;;11.70;7.40;;;13.80;96.40;;;;;;4948416;29;20028;-73
2023/04/19 11:35:19;;;;;;;13.05;8.13;;;13.60;97.00;;;;;;4944530;29;20030;-71
2023/04/19 11:37:45;;;;;;;12.57;8.15;;;13.50;97.30;;;;;;4929777;29;20059;-75
2023/04/19 11:40:15;;;;;;;10.43;7.38;;;13.50;97.70;;;;;;4944520;29;20098;-72
2023/04/19 11:42:41;;;;;;;11.40;8.20;;;13.40;97.80;;;;;;4944364;29;20024;-71
2023/04/19 11:45:08;;;;;;;12.20;7.97;;;13.20;98.10;;;;;;4946543;29;20094;-71
2023/04/19 11:47:34;;;;;;;12.10;7.93;;;13.10;98.20;;;;;;4944289;29;20079;-71
2023/04/19 11:50:38;;;;;;;10.90;8.13;;;13.00;98.60;;;;;;4944477;29;20250;-72
2023/04/19 11:53:19;;;;;;;13.55;8.50;;;12.90;99.50;;;;;;4938219;29;20036;-72
2023/04/19 11:55:50;;;;;;;13.82;8.18;;;12.90;99.90;;;;;;4941851;29;20107;-72
2023/04/19 11:58:39;;;;;;;14.18;9.35;;;12.90;99.90;;;;;;4947957;29;20059;-76
2023/04/19 12:01:13;;;;;;;15.23;10.48;;;12.70;99.90;;;;;;4948197;29;20032;-71
2023/04/19 12:03:47;;;;;;;16.67;12.05;;;12.50;99.90;;;;;;4947668;29;20059;-71
2023/04/19 12:06:27;;;;;;;19.00;11.30;;;12.40;99.90;;;;;;4948115;29;20033;-72
2023/04/19 12:08:54;;;;;;;18.17;12.02;;;12.20;99.90;;;;;;4944851;29;20317;-71
2023/04/19 12:11:25;;;;;;;15.77;11.55;;;12.10;99.90;;;;;;4947770;29;20024;-71
2023/04/19 12:14:11;;;;;;;17.80;12.38;;;12.00;99.90;;;;;;4943418;29;20039;-73
2023/04/19 12:16:37;;;;;;;19.17;12.07;;;11.80;99.90;;;;;;4933176;29;20053;-73
2023/04/19 12:19:14;;;;;;;17.20;11.93;;;11.70;99.90;;;;;;4949425;29;20027;-72
2023/04/19 12:21:43;;;;;;;19.08;12.52;;;11.60;99.90;;;;;;4964050;29;20023;-72
2023/04/19 12:24:09;;;;;;;19.30;13.38;;;11.70;99.90;;;;;;4948666;29;20275;-71
2023/04/19 12:26:35;;;;;;;18.70;12.40;;;11.60;99.90;;;;;;4951300;29;20019;-73
2023/04/19 12:29:02;;;;;;;18.85;12.57;;;11.60;99.90;;;;;;4963229;29;20360;-73
2023/04/19 12:31:31;;;;;;;18.10;12.95;;;11.60;99.90;;;;;;4947159;29;20027;-71
2023/04/19 12:33:57;;;;;;;19.60;13.65;;;11.60;99.90;;;;;;4947685;29;20024;-72
2023/04/19 12:36:23;;;;;;;20.65;14.13;;;11.60;99.90;;;;;;4947764;29;20063;-71
2023/04/19 12:38:49;;;;;;;20.02;14.35;;;11.50;99.90;;;;;;4947124;29;20032;-73
2023/04/19 12:41:15;;;;;;;22.05;13.75;;;11.40;99.90;;;;;;4947389;29;20266;-70
2023/04/19 12:43:40;;;;;;;20.25;13.98;;;11.30;99.90;;;;;;4933599;29;20321;-71
2023/04/19 12:46:06;;;;;;;21.80;14.48;;;11.30;99.90;;;;;;4944955;29;20036;-71
2023/04/19 12:48:32;;;;;;;22.17;15.10;;;11.30;99.90;;;;;;4947606;29;20063;-72
2023/04/19 12:50:57;;;;;;;21.42;13.63;;;11.30;99.90;;;;;;4945714;29;20043;-73
2023/04/19 12:53:24;;;;;;;22.17;14.30;;;11.40;99.90;;;;;;4949575;29;20335;-72
2023/04/19 12:55:50;;;;;;;24.95;14.48;;;11.40;99.90;;;;;;4949498;29;20190;-71
2023/04/19 12:58:16;;;;;;;19.33;12.20;;;11.50;99.90;;;;;;4966611;29;20074;-71
2023/04/19 13:00:43;;;;;;;22.88;13.57;;;11.40;99.90;;;;;;4966036;28;20082;-70
2023/04/19 13:03:08;;;;;;;18.83;12.15;;;11.30;99.90;;;;;;4961840;29;20058;-72
2023/04/19 13:05:34;;;;;;;18.10;11.45;;;11.20;99.90;;;;;;4947855;29;20103;-72
2023/04/19 13:08:00;;;;;;;20.75;12.13;;;11.30;99.90;;;;;;4947440;29;20309;-72
2023/04/19 13:10:25;;;;;;;18.75;12.18;;;11.20;99.90;;;;;;4946724;29;20310;-72
2023/04/19 13:12:51;;;;;;;16.33;10.45;;;11.20;99.90;;;;;;4965041;29;20078;-72
2023/04/19 13:15:17;;;;;;;18.17;11.75;;;11.20;99.90;;;;;;4966262;29;20064;-71
2023/04/19 13:17:43;;;;;;;19.98;12.00;;;11.20;99.90;;;;;;4965728;29;20035;-73
2023/04/19 13:20:09;;;;;;;17.70;11.07;;;11.20;99.90;;;;;;4966407;29;20043;-72
2023/04/19 13:22:35;;;;;;;15.82;10.82;;;11.30;99.90;;;;;;4942823;29;20035;-72
2023/04/19 13:25:01;;;;;;;16.23;10.32;;;11.30;99.90;;;;;;4946669;29;20035;-73
2023/04/19 13:27:26;;;;;;;15.90;10.38;;;11.30;99.90;;;;;;4946262;29;20050;-72
2023/04/19 13:29:55;;;;;;;17.90;10.13;;;11.40;99.90;;;;;;4954085;29;20239;-72
2023/04/19 13:32:21;;;;;;;17.08;9.85;;;11.40;99.90;;;;;;4965451;29;20043;-72
2023/04/19 13:34:47;;;;;;;11.32;7.43;;;11.40;99.90;;;;;;4958247;29;20055;-71
2023/04/19 13:37:13;;;;;;;11.32;7.75;;;11.50;99.90;;;;;;4946840;29;20046;-72
2023/04/19 13:39:45;;;;;;;14.07;9.25;;;11.60;99.90;;;;;;4946226;29;20059;-72
2023/04/19 13:42:12;;;;;;;12.93;8.23;;;11.70;99.90;;;;;;4947002;29;20038;-71
2023/04/19 13:44:38;;;;;;;15.45;9.48;;;11.80;99.90;;;;;;4946361;29;20070;-71
2023/04/19 13:47:04;;;;;;;12.35;7.97;;;11.80;99.90;;;;;;4965721;29;20297;-72
2023/04/19 13:49:30;;;;;;;11.02;8.10;;;11.90;99.90;;;;;;4964740;29;20038;-73
2023/04/19 13:51:55;;;;;;;12.82;7.80;;;11.80;99.90;;;;;;4965466;29;20038;-74
2023/04/19 13:54:21;;;;;;;11.07;7.53;;;11.80;99.90;;;;;;4965073;29;20023;-73
2023/04/19 13:56:47;;;;;;;12.23;8.13;;;11.90;99.90;;;;;;4965015;29;20035;-71
2023/04/19 13:59:12;;;;;;;12.25;7.93;;;11.90;99.90;;;;;;4964981;29;20356;-70
2023/04/19 14:01:38;;;;;;;10.18;7.30;;;12.00;99.90;;;;;;4947736;29;20043;-72
2023/04/19 14:04:04;;;;;;;12.85;7.55;;;12.10;99.90;;;;;;4954224;29;20036;-73
2023/04/19 14:06:31;;;;;;;14.43;8.70;;;12.20;99.90;;;;;;4945499;29;20229;-73
2023/04/19 14:08:56;;;;;;;10.57;7.65;;;12.40;99.90;;;;;;4946140;29;20028;-72
2023/04/19 14:11:23;;;;;;;11.43;7.40;;;12.70;99.90;;;;;;4964908;29;20042;-72
2023/04/19 14:13:49;;;;;;;10.88;7.13;;;13.00;99.90;;;;;;4964694;29;20225;-72
2023/04/19 14:16:15;;;;;;;11.43;7.43;;;13.40;99.90;;;;;;4964358;28;20031;-73
2023/04/19 14:18:40;;;;;;;9.02;6.43;;;13.80;99.90;;;;;;4965044;29;20094;-73
2023/04/19 14:21:06;;;;;;;9.07;6.70;;;14.00;99.90;;;;;;4964865;29;20031;-70
2023/04/19 14:23:32;;;;;;;9.20;6.43;;;14.30;99.90;;;;;;4951536;29;20030;-72
2023/04/19 14:25:58;;;;;;;9.23;6.85;;;14.90;99.30;;;;;;4945863;29;20031;-73
2023/04/19 14:28:24;;;;;;;9.52;6.13;;;16.20;96.50;;;;;;4946293;29;20023;-71
2023/04/19 14:30:51;;;;;;;8.35;5.70;;;17.20;93.50;;;;;;4959168;29;20325;-74
2023/04/19 14:33:16;;;;;;;9.85;5.95;;;17.50;92.50;;;;;;4965390;29;20043;-73
2023/04/19 14:35:42;;;;;;;8.70;6.43;;;17.00;92.20;;;;;;4964901;29;20220;-75
2023/04/19 14:38:08;;;;;;;8.30;6.00;;;16.60;92.10;;;;;;4965183;29;20075;-74
2023/04/19 14:40:34;;;;;;;9.18;5.65;;;16.70;93.20;;;;;;4964733;29;20043;-75
2023/04/19 14:43:00;;;;;;;10.20;6.93;;;17.10;93.00;;;;;;4963679;29;20031;-74
2023/04/19 14:45:26;;;;;;;9.35;6.60;;;16.70;92.10;;;;;;4945221;29;20042;-73
2023/04/19 14:47:52;;;;;;;10.20;6.93;;;15.90;93.40;;;;;;4945676;29;20036;-73
2023/04/19 14:50:18;;;;;;;9.88;6.82;;;15.40;94.30;;;;;;4945755;29;20341;-72
2023/04/19 14:52:50;;;;;;;10.05;6.93;;;15.00;94.50;;;;;;4945425;29;20023;-74
2023/04/19 14:55:16;;;;;;;9.65;6.68;;;14.40;95.20;;;;;;4951324;29;20254;-71
2023/04/19 14:57:42;;;;;;;10.23;7.05;;;13.90;96.30;;;;;;4947432;29;20039;-73
2023/04/19 15:00:08;;;;;;;11.45;7.18;;;13.80;97.20;;;;;;4945750;29;20035;-71
2023/04/19 15:02:34;;;;;;;14.02;8.18;;;13.40;97.10;;;;;;4941624;29;20207;-72
2023/04/19 15:04:59;;;;;;;10.75;7.25;;;13.00;98.10;;;;;;4945198;29;20041;-73
2023/04/19 15:07:25;;;;;;;11.30;7.28;;;12.80;98.70;;;;;;4945283;29;20237;-73
2023/04/19 15:09:51;;;;;;;14.00;7.95;;;12.70;99.10;;;;;;4940372;29;20306;-71
2023/04/19 15:12:26;;;;;;;10.57;7.30;;;12.60;99.50;;;;;;4958447;29;20046;-71
2023/04/19 15:14:51;;;;;;;12.70;7.85;;;12.60;99.80;;;;;;4957345;29;20241;-69
2023/04/19 15:17:20;;;;;;;10.95;6.82;;;12.80;99.40;;;;;;4959829;29;20038;-72
2023/04/19 15:19:54;;;;;;;10.55;7.68;;;13.00;99.20;;;;;;4925879;29;20041;-73
2023/04/19 15:22:26;;;;;;;9.70;6.68;;;13.20;98.80;;;;;;4956948;29;20032;-72
2023/04/19 15:24:52;;;;;;;9.75;7.05;;;13.60;98.40;;;;;;4963993;29;20051;-70
2023/04/19 15:27:17;;;;;;;10.57;7.22;;;13.80;97.90;;;;;;4962483;28;20015;-71
2023/04/19 15:29:45;;;;;;;10.27;7.35;;;13.90;97.40;;;;;;4968009;29;20034;-70
2023/04/19 15:32:11;;;;;;;11.05;7.47;;;14.00;97.30;;;;;;4968738;29;20046;-72
2023/04/19 15:34:37;;;;;;;11.30;7.45;;;13.90;97.20;;;;;;4968053;29;20373;-71
2023/04/19 15:37:05;;;;;;;9.98;6.70;;;13.90;97.60;;;;;;4951459;29;20054;-71
2023/04/19 15:39:31;;;;;;;10.70;7.20;;;14.10;97.30;;;;;;4967916;29;20102;-71
2023/04/19 15:41:57;;;;;;;14.32;7.53;;;14.50;97.00;;;;;;4967962;29;20035;-73
2023/04/19 15:44:23;;;;;;;8.05;5.60;;;14.70;96.40;;;;;;4955924;29;20043;-71
2023/04/19 15:46:49;;;;;;;8.52;5.88;;;16.00;96.20;;;;;;4948531;29;20345;-70
2023/04/19 15:49:17;;;;;;;7.70;6.20;;;18.50;92.50;;;;;;4948750;29;20031;-73
2023/04/19 15:51:43;;;;;;;8.07;5.88;;;19.70;88.90;;;;;;4948300;29;20055;-74
2023/04/19 15:54:10;;;;;;;9.18;6.25;;;19.20;88.20;;;;;;4949022;29;20055;-72
2023/04/19 15:56:38;;;;;;;9.05;6.55;;;18.70;88.10;;;;;;4931535;29;20359;-72
2023/04/19 15:59:03;;;;;;;8.75;6.32;;;18.80;88.70;;;;;;4948610;29;20036;-73
2023/04/19 16:01:34;;;;;;;7.60;5.65;;;19.20;87.00;;;;;;4948008;29;20046;-73
2023/04/19 16:04:02;;;;;;;9.60;6.70;;;19.60;86.00;;;;;;4963090;29;20081;-71
2023/04/19 16:06:28;;;;;;;7.68;6.13;;;18.70;86.20;;;;;;4948401;29;20091;-72
2023/04/19 16:08:53;;;;;;;9.25;6.32;;;18.10;89.60;;;;;;4948666;29;20030;-74
2023/04/19 16:11:19;;;;;;;9.02;6.20;;;18.10;88.30;;;;;;4953753;29;20046;-72
2023/04/19 16:13:45;;;;;;;11.25;7.22;;;17.30;90.50;;;;;;4967179;29;20038;-72
2023/04/19 16:16:11;;;;;;;9.35;6.40;;;16.70;90.90;;;;;;4967859;29;20027;-69
2023/04/19 16:18:36;;;;;;;10.52;6.53;;;16.20;91.70;;;;;;4967237;29;20035;-72
2023/04/19 16:21:02;;;;;;;9.27;6.80;;;16.10;92.10;;;;;;4967734;29;20027;-72
2023/04/19 16:23:28;;;;;;;9.73;6.93;;;16.10;92.30;;;;;;4967309;29;20039;-71
2023/04/19 16:25:54;;;;;;;10.05;6.45;;;16.30;92.20;;;;;;4967754;29;20039;-72
2023/04/19 16:28:20;;;;;;;11.55;7.60;;;16.70;91.50;;;;;;4967664;29;20047;-72
2023/04/19 16:30:46;;;;;;;10.45;7.85;;;16.80;91.50;;;;;;4932305;29;20031;-72
2023/04/19 16:33:12;;;;;;;13.95;7.25;;;16.60;91.70;;;;;;4947905;29;20035;-72
2023/04/19 16:35:37;;;;;;;13.20;7.95;;;16.40;91.90;;;;;;4947883;29;20042;-70
2023/04/19 16:38:03;;;;;;;12.93;7.72;;;15.90;92.50;;;;;;4939422;29;20091;-72
2023/04/19 16:40:29;;;;;;;11.98;6.68;;;16.40;92.80;;;;;;4959513;29;20035;-74
2023/04/19 16:42:56;;;;;;;10.13;6.55;;;17.60;91.10;;;;;;4964635;29;20376;-72
2023/04/19 16:45:22;;;;;;;8.55;6.22;;;19.00;88.70;;;;;;4959626;29;20019;-69
2023/04/19 16:47:47;;;;;;;9.20;6.35;;;19.30;87.90;;;;;;4963347;29;20490;-72
2023/04/19 16:50:13;;;;;;;9.38;6.80;;;18.80;86.30;;;;;;4945292;29;20054;-73
2023/04/19 16:52:42;;;;;;;9.85;6.80;;;18.30;87.20;;;;;;4947104;29;20043;-71
2023/04/19 16:55:08;;;;;;;;;;;17.70;89.30;;;;;;4948591;29;20016;-71
2023/04/19 16:57:34;;;;;;;8.70;5.85;;;17.60;90.10;;;;;;4961677;29;19906;-71
2023/04/19 16:59:59;;;;;;;9.95;5.60;;;17.70;90.00;;;;;;4966725;29;20039;-71
2023/04/19 17:02:25;;;;;;;8.85;6.07;;;18.60;89.70;;;;;;4941720;29;20318;-72
2023/04/19 17:04:51;;;;;;;8.27;5.78;;;19.30;84.80;;;;;;4963539;29;20027;-71
2023/04/19 17:07:17;;;;;;;8.48;5.78;;;20.20;83.80;;;;;;4953458;29;20031;-72
2023/04/19 17:09:45;;;;;;;8.45;5.90;;;20.10;82.50;;;;;;4952029;29;20059;-72
2023/04/19 17:12:11;;;;;;;8.02;6.15;;;19.60;83.50;;;;;;4954461;29;20039;-73
2023/04/19 17:14:38;;;;;;;9.43;6.10;;;19.10;84.20;;;;;;4927125;29;20043;-74
2023/04/19 17:17:04;;;;;;;8.38;6.15;;;18.40;87.50;;;;;;4939817;29;20023;-73
2023/04/19 17:19:29;;;;;;;7.07;5.72;;;17.90;86.80;;;;;;4947486;29;20055;-74
2023/04/19 17:21:57;;;;;;;8.57;5.70;;;17.30;89.90;;;;;;4947557;29;20217;-71
2023/04/19 17:24:23;;;;;;;8.20;6.43;;;17.00;90.20;;;;;;4930555;29;20044;-71
2023/04/19 17:26:48;;;;;;;10.65;6.00;;;16.40;90.40;;;;;;4928508;29;20035;-72
2023/04/19 17:29:14;;;;;;;9.60;6.63;;;16.10;91.60;;;;;;4949891;29;20031;-72
2023/04/19 17:31:40;;;;;;;9.90;5.53;;;15.70;90.90;;;;;;4927304;29;20023;-71
2023/04/19 17:34:05;;;;;;;8.35;5.03;;;15.20;90.60;;;;;;4960191;29;20032;-74
2023/04/19 17:36:31;;;;;;;8.75;5.60;;;15.00;91.00;;;;;;4946913;29;20261;-74
2023/04/19 17:38:57;;;;;;;11.20;7.20;;;14.80;92.50;;;;;;4947157;29;20044;-73
2023/04/19 17:41:23;;;;;;;9.18;6.38;;;14.50;93.00;;;;;;4946936;29;20270;-70
2023/04/19 17:43:48;;;;;;;9.20;6.75;;;14.20;94.20;;;;;;4929511;29;20094;-71